Time;durP1;ratioP1;P1;durP2;ratioP2;P2;SDS_P1;SDS_P2;PMS_P1;PMS_P2;Temp;Humidity;BMP_temperature;BMP_pressure;BME280_temperature;BME280_humidity;BME280_pressure;Samples;Min_cycle;Max_cycle;Signal;HPM_P1;HPM_P2
2022/11/13 00:01:53;;;;;;;0.00;0.00;;;;;;;15.77;70.44;100992.03;7362737;19;20090;-57
2022/11/13 00:04:19;;;;;;;0.10;0.10;;;;;;;15.76;70.14;100987.69;7359494;19;20094;-55
2022/11/13 00:06:44;;;;;;;0.10;0.10;;;;;;;15.77;70.44;100994.66;7362939;19;20014;-58
2022/11/13 00:09:12;;;;;;;0.10;0.10;;;;;;;15.79;70.17;100982.28;7360630;19;20015;-57
2022/11/13 00:11:38;;;;;;;0.00;0.00;;;;;;;15.76;70.52;100990.31;7364556;19;20017;-57
2022/11/13 00:14:04;;;;;;;0.10;0.10;;;;;;;15.75;70.00;100987.72;7360950;19;20003;-57
2022/11/13 00:16:29;;;;;;;0.10;0.10;;;;;;;15.74;70.09;100981.59;7363074;19;20094;-57
2022/11/13 00:18:55;;;;;;;0.10;0.10;;;;;;;15.72;70.19;100988.72;7362941;19;20574;-57
2022/11/13 00:21:26;;;;;;;0.10;0.10;;;;;;;15.73;70.17;100990.41;7363663;19;20010;-57
2022/11/13 00:23:52;;;;;;;0.00;0.00;;;;;;;15.71;69.75;100997.53;7361232;19;20006;-57
2022/11/13 00:26:29;;;;;;;0.03;0.03;;;;;;;15.73;69.77;100994.84;7363703;19;20095;-56
2022/11/13 00:28:56;;;;;;;0.10;0.10;;;;;;;15.70;69.80;100995.78;7361005;19;20021;-56
2022/11/13 00:31:22;;;;;;;;;;;;;;;15.72;69.48;100991.34;7357982;19;20429;-57
2022/11/13 00:33:48;;;;;;;0.10;0.10;;;;;;;15.67;69.84;100989.81;7359792;19;20003;-56
2022/11/13 00:36:16;;;;;;;0.10;0.10;;;;;;;15.67;69.51;100984.56;7358095;19;20017;-57
2022/11/13 00:38:41;;;;;;;0.10;0.10;;;;;;;15.63;70.25;100983.81;7358938;19;20030;-57
2022/11/13 00:41:07;;;;;;;0.03;0.03;;;;;;;15.61;70.16;100985.59;7361824;19;20871;-57
2022/11/13 00:43:32;;;;;;;0.00;0.00;;;;;;;15.59;69.90;100992.69;7363659;19;20434;-57
2022/11/13 00:45:58;;;;;;;0.05;0.05;;;;;;;15.60;69.72;100994.41;7362760;19;20010;-57
2022/11/13 00:48:24;;;;;;;0.10;0.10;;;;;;;15.57;69.86;100994.53;7362235;19;20042;-57
2022/11/13 00:50:50;;;;;;;0.10;0.10;;;;;;;15.56;69.86;100995.44;7357320;19;20034;-57
2022/11/13 00:53:15;;;;;;;0.00;0.00;;;;;;;15.55;70.14;100991.09;7363354;19;20006;-57
2022/11/13 00:55:45;;;;;;;0.00;0.00;;;;;;;15.56;69.84;100993.69;7360050;19;20006;-57
2022/11/13 00:58:11;;;;;;;0.00;0.00;;;;;;;15.54;69.99;100984.13;7358729;19;20041;-56
2022/11/13 01:00:37;;;;;;;0.10;0.10;;;;;;;15.53;70.09;100985.06;7361339;19;20097;-57
2022/11/13 01:03:03;;;;;;;0.10;0.10;;;;;;;15.52;70.31;100985.97;7362431;19;20006;-58
2022/11/13 01:05:29;;;;;;;0.03;0.03;;;;;;;15.51;70.02;100981.59;7359915;19;20010;-56
2022/11/13 01:07:54;;;;;;;0.00;0.00;;;;;;;15.51;70.43;100986.88;7361684;19;20002;-57
2022/11/13 01:10:21;;;;;;;0.00;0.00;;;;;;;15.52;70.17;100983.34;7362185;19;20394;-58
2022/11/13 01:12:47;;;;;;;0.10;0.10;;;;;;;15.51;70.25;100979.84;7362463;19;20023;-57
2022/11/13 01:15:12;;;;;;;0.00;0.00;;;;;;;15.51;70.40;100973.69;7358054;19;20030;-57
2022/11/13 01:17:38;;;;;;;0.10;0.10;;;;;;;15.41;70.25;100953.91;7355144;19;20078;-58
2022/11/13 01:20:05;;;;;;;0.00;0.00;;;;;;;15.50;69.90;100966.72;7332651;19;20006;-57
2022/11/13 01:22:30;;;;;;;0.00;0.00;;;;;;;15.48;70.01;100952.78;7356562;19;20031;-56
2022/11/13 01:24:56;;;;;;;0.10;0.10;;;;;;;15.47;70.01;100951.94;7354444;19;20053;-57
2022/11/13 01:27:22;;;;;;;0.00;0.00;;;;;;;15.47;70.54;100956.34;7334286;19;20049;-57
2022/11/13 01:29:47;;;;;;;0.00;0.00;;;;;;;15.47;70.27;100951.06;7343187;19;20675;-57
2022/11/13 01:32:13;;;;;;;0.00;0.00;;;;;;;15.46;70.08;100959.88;7349913;19;20077;-57
2022/11/13 01:34:38;;;;;;;0.00;0.00;;;;;;;15.45;70.23;100953.75;7356858;19;20026;-58
2022/11/13 01:37:04;;;;;;;0.10;0.10;;;;;;;15.43;70.35;100939.81;7345472;19;20019;-57
2022/11/13 01:39:30;;;;;;;0.10;0.10;;;;;;;15.43;70.45;100957.38;7354765;19;20041;-57
2022/11/13 01:41:55;;;;;;;0.00;0.00;;;;;;;15.42;70.84;100946.00;7354714;19;20016;-57
2022/11/13 01:44:20;;;;;;;0.08;0.08;;;;;;;15.42;70.35;100953.88;7349717;19;20010;-58
2022/11/13 01:46:49;;;;;;;0.00;0.00;;;;;;;15.43;70.53;100947.69;7354108;19;20015;-57
2022/11/13 01:49:23;;;;;;;0.10;0.10;;;;;;;15.45;70.39;100947.63;7352271;19;20013;-57
2022/11/13 01:51:49;;;;;;;0.00;0.00;;;;;;;15.40;70.48;100945.16;7354682;19;20106;-56
2022/11/13 01:54:29;;;;;;;0.00;0.00;;;;;;;15.44;70.38;100945.91;7357499;19;20089;-57
2022/11/13 01:56:55;;;;;;;0.00;0.00;;;;;;;15.40;70.51;100949.56;7357613;19;20646;-55
2022/11/13 01:59:25;;;;;;;0.10;0.10;;;;;;;15.34;70.52;100934.03;7358413;19;20631;-57
2022/11/13 02:01:51;;;;;;;0.10;0.10;;;;;;;15.38;70.33;100947.03;7358381;19;20766;-57
2022/11/13 02:04:17;;;;;;;0.00;0.00;;;;;;;15.37;70.77;100944.47;7357145;19;20019;-57
2022/11/13 02:06:53;;;;;;;0.10;0.10;;;;;;;15.30;70.39;100928.88;7358292;19;20043;-57
2022/11/13 02:09:23;;;;;;;0.00;0.00;;;;;;;15.36;70.55;100938.34;7359907;19;20042;-57
2022/11/13 02:11:49;;;;;;;0.08;0.08;;;;;;;15.34;70.68;100929.63;7365159;19;20845;-57
2022/11/13 02:14:16;;;;;;;0.00;0.00;;;;;;;15.33;70.85;100922.66;7367254;19;20011;-56
2022/11/13 02:16:45;;;;;;;0.10;0.10;;;;;;;15.32;70.28;100921.81;7366666;19;20021;-56
2022/11/13 02:19:18;;;;;;;0.00;0.00;;;;;;;15.32;70.17;100919.16;7366181;19;20018;-57
2022/11/13 02:21:58;;;;;;;0.03;0.03;;;;;;;15.35;70.50;100917.31;7367348;19;20031;-55
2022/11/13 02:24:28;;;;;;;0.00;0.00;;;;;;;15.34;70.70;100911.22;7363631;19;20037;-57
2022/11/13 02:26:59;;;;;;;0.00;0.00;;;;;;;15.32;70.70;100908.66;7366638;19;20579;-57
2022/11/13 02:29:25;;;;;;;0.10;0.10;;;;;;;15.30;70.48;100896.44;7367589;19;20378;-57
2022/11/13 02:31:50;;;;;;;0.00;0.00;;;;;;;15.30;70.78;100891.19;7365200;19;20010;-57
2022/11/13 02:34:16;;;;;;;0.10;0.10;;;;;;;15.29;70.41;100895.59;7367009;19;20028;-57
2022/11/13 02:36:41;;;;;;;0.10;0.10;;;;;;;15.29;70.49;100900.84;7365987;19;20010;-55
2022/11/13 02:39:10;;;;;;;0.10;0.10;;;;;;;15.30;70.49;100892.03;7364016;19;20018;-57
2022/11/13 02:41:37;;;;;;;0.00;0.00;;;;;;;15.23;70.63;100885.31;7362724;19;20013;-57
2022/11/13 02:44:04;;;;;;;0.00;0.00;;;;;;;15.21;71.02;100887.16;7366935;19;20045;-57
2022/11/13 02:46:29;;;;;;;0.10;0.10;;;;;;;15.27;70.97;100894.81;7369779;19;20012;-57
2022/11/13 02:48:55;;;;;;;0.00;0.00;;;;;;;15.27;70.75;100886.91;7363909;19;20011;-56
2022/11/13 02:51:20;;;;;;;0.10;0.10;;;;;;;15.27;70.91;100886.91;7365150;19;20037;-58
2022/11/13 02:53:46;;;;;;;0.00;0.00;;;;;;;15.26;70.71;100882.59;7366236;19;20742;-55
2022/11/13 02:56:11;;;;;;;0.00;0.00;;;;;;;15.26;70.99;100882.59;7368084;19;20002;-57
2022/11/13 02:58:37;;;;;;;0.00;0.00;;;;;;;15.26;71.09;100879.94;7356253;19;20425;-56
2022/11/13 03:01:03;;;;;;;0.00;0.00;;;;;;;15.26;70.77;100884.34;7366600;19;20018;-57
2022/11/13 03:03:29;;;;;;;0.00;0.00;;;;;;;15.20;70.96;100869.66;7363277;19;20006;-57
2022/11/13 03:05:54;;;;;;;0.00;0.00;;;;;;;15.23;70.85;100868.69;7365377;19;20015;-57
2022/11/13 03:08:22;;;;;;;0.00;0.00;;;;;;;15.23;71.11;100869.53;7366881;19;20431;-57
2022/11/13 03:10:48;;;;;;;0.05;0.05;;;;;;;15.24;70.93;100871.25;7365799;19;20029;-57
2022/11/13 03:13:14;;;;;;;0.00;0.00;;;;;;;15.24;71.17;100886.16;7366715;19;20002;-57
2022/11/13 03:15:39;;;;;;;0.00;0.00;;;;;;;15.23;70.99;100869.53;7364233;19;20030;-57
2022/11/13 03:18:06;;;;;;;0.05;0.05;;;;;;;15.17;71.34;100859.25;7365917;19;20018;-57
2022/11/13 03:20:32;;;;;;;0.10;0.10;;;;;;;15.24;71.05;100873.03;7366327;19;20023;-58
2022/11/13 03:22:57;;;;;;;0.05;0.05;;;;;;;15.21;71.13;100855.59;7365827;19;20010;-55
2022/11/13 03:25:23;;;;;;;0.10;0.10;;;;;;;15.21;71.49;100863.50;7366087;19;20026;-57
2022/11/13 03:27:48;;;;;;;0.03;0.03;;;;;;;15.21;71.54;100855.59;7364882;19;20085;-57
2022/11/13 03:30:14;;;;;;;0.00;0.00;;;;;;;15.22;71.72;100859.09;7366265;19;20097;-57
2022/11/13 03:32:39;;;;;;;0.08;0.08;;;;;;;15.20;71.34;100848.59;7364919;19;20010;-57
2022/11/13 03:35:05;;;;;;;0.03;0.03;;;;;;;15.20;71.44;100845.97;7364056;19;20018;-57
2022/11/13 03:37:30;;;;;;;0.05;0.05;;;;;;;15.21;71.44;100838.97;7367188;19;20027;-57
2022/11/13 03:39:56;;;;;;;0.10;0.10;;;;;;;15.17;71.42;100829.47;7364824;19;20015;-57
2022/11/13 03:42:21;;;;;;;0.10;0.10;;;;;;;15.20;71.47;100832.81;7361151;19;20014;-56
2022/11/13 03:44:46;;;;;;;0.05;0.05;;;;;;;15.21;71.34;100831.06;7364965;19;20476;-57
2022/11/13 03:47:12;;;;;;;0.00;0.00;;;;;;;15.21;71.73;100829.28;7365799;19;20023;-57
2022/11/13 03:49:37;;;;;;;0.00;0.00;;;;;;;15.21;71.53;100824.03;7361752;19;20006;-57
2022/11/13 03:52:03;;;;;;;0.00;0.00;;;;;;;15.16;71.59;100815.47;7364564;19;20493;-57
2022/11/13 03:54:29;;;;;;;0.00;0.00;;;;;;;15.22;72.03;100820.47;7363538;19;20018;-57
2022/11/13 03:56:54;;;;;;;0.10;0.10;;;;;;;15.21;71.74;100818.78;7366947;19;20053;-57
2022/11/13 03:59:20;;;;;;;0.10;0.10;;;;;;;15.23;72.00;100822.19;7363859;19;20621;-57
2022/11/13 04:01:45;;;;;;;0.00;0.00;;;;;;;15.20;71.76;100806.50;7366691;19;20021;-57
2022/11/13 04:04:11;;;;;;;0.03;0.03;;;;;;;15.21;71.74;100808.25;7358125;19;20010;-57
2022/11/13 04:06:36;;;;;;;0.00;0.00;;;;;;;15.28;72.26;100812.31;7359192;19;20011;-57
2022/11/13 04:09:02;;;;;;;0.10;0.10;;;;;;;15.31;72.32;100804.31;7366090;19;20026;-57
2022/11/13 04:11:27;;;;;;;0.08;0.08;;;;;;;15.32;72.30;100795.50;7366449;19;20888;-57
2022/11/13 04:13:53;;;;;;;0.10;0.10;;;;;;;15.35;72.28;100805.03;7362586;19;20077;-57
2022/11/13 04:16:18;;;;;;;0.00;0.00;;;;;;;15.37;71.99;100818.16;7365875;19;20638;-57
2022/11/13 04:18:43;;;;;;;0.03;0.03;;;;;;;15.38;72.25;100802.28;7361329;19;20110;-57
2022/11/13 04:21:09;;;;;;;0.10;0.10;;;;;;;15.41;71.92;100815.34;7359184;19;20037;-57
2022/11/13 04:23:34;;;;;;;0.10;0.10;;;;;;;15.44;71.86;100803.81;7365886;19;20041;-57
2022/11/13 04:25:59;;;;;;;0.00;0.00;;;;;;;15.45;71.87;100800.25;7366633;19;20032;-57
2022/11/13 04:28:25;;;;;;;0.00;0.00;;;;;;;15.45;72.19;100795.00;7363844;19;20373;-57
2022/11/13 04:30:52;;;;;;;0.08;0.08;;;;;;;15.47;72.32;100794.03;7365792;19;20010;-58
2022/11/13 04:33:18;;;;;;;;;;;;;;;15.53;70.95;100803.44;7365371;19;20054;-57
2022/11/13 04:35:44;;;;;;;0.00;0.00;;;;;;;15.49;72.05;100786.91;7366113;19;20325;-57
2022/11/13 04:38:11;;;;;;;0.00;0.00;;;;;;;15.50;71.80;100793.88;7363820;19;20025;-57
2022/11/13 04:40:37;;;;;;;0.00;0.00;;;;;;;15.50;71.74;100798.28;7365593;19;20014;-56
2022/11/13 04:43:02;;;;;;;0.00;0.00;;;;;;;15.49;72.34;100801.84;7364725;19;20014;-57
2022/11/13 04:45:28;;;;;;;0.00;0.00;;;;;;;15.49;72.08;100801.84;7366200;19;20015;-56
2022/11/13 04:47:53;;;;;;;0.10;0.10;;;;;;;15.48;72.01;100794.88;7364550;19;20025;-56
2022/11/13 04:50:19;;;;;;;0.10;0.10;;;;;;;15.49;72.44;100793.94;7364224;19;20042;-57
2022/11/13 04:52:45;;;;;;;0.10;0.10;;;;;;;15.49;72.52;100796.56;7364928;19;20010;-57
2022/11/13 04:55:11;;;;;;;0.00;0.00;;;;;;;15.49;72.81;100786.06;7365090;19;20089;-57
2022/11/13 04:57:38;;;;;;;0.10;0.10;;;;;;;15.42;72.71;100780.19;7364387;19;20042;-56
2022/11/13 05:00:08;;;;;;;0.10;0.10;;;;;;;15.51;72.30;100789.47;7364524;19;20581;-57
2022/11/13 05:02:34;;;;;;;0.08;0.08;;;;;;;15.46;72.94;100786.16;7362964;19;20010;-57
2022/11/13 05:04:59;;;;;;;0.00;0.00;;;;;;;15.48;72.86;100789.59;7364684;19;20010;-57
2022/11/13 05:07:25;;;;;;;0.10;0.10;;;;;;;15.48;72.96;100789.59;7364417;19;20687;-57
2022/11/13 05:09:51;;;;;;;0.00;0.00;;;;;;;15.39;72.99;100775.03;7364317;19;20010;-57
2022/11/13 05:12:16;;;;;;;0.00;0.00;;;;;;;15.48;73.09;100792.25;7363524;19;20010;-57
2022/11/13 05:14:42;;;;;;;0.00;0.00;;;;;;;15.49;73.34;100791.31;7362109;19;20078;-57
2022/11/13 05:17:10;;;;;;;0.10;0.10;;;;;;;15.51;73.25;100789.47;7364706;19;20401;-57
2022/11/13 05:19:35;;;;;;;0.00;0.00;;;;;;;15.48;73.52;100785.19;7360036;19;21087;-58
2022/11/13 05:22:01;;;;;;;0.10;0.10;;;;;;;15.51;73.43;100776.31;7364923;19;20074;-58
2022/11/13 05:24:27;;;;;;;0.10;0.10;;;;;;;15.51;73.56;100777.19;7362554;19;20018;-57
2022/11/13 05:26:53;;;;;;;0.00;0.00;;;;;;;15.54;73.48;100773.56;7365278;19;20036;-57
2022/11/13 05:29:18;;;;;;;0.00;0.00;;;;;;;15.55;73.54;100770.00;7360395;19;20481;-57
2022/11/13 05:31:44;;;;;;;0.10;0.10;;;;;;;15.53;73.07;100756.06;7364324;19;20014;-57
2022/11/13 05:34:09;;;;;;;0.00;0.00;;;;;;;15.45;73.59;100735.31;7361188;19;20011;-57
2022/11/13 05:36:35;;;;;;;0.00;0.00;;;;;;;15.56;73.20;100750.66;7361166;19;20018;-57
2022/11/13 05:39:00;;;;;;;0.00;0.00;;;;;;;15.57;73.17;100741.84;7364081;19;20037;-55
2022/11/13 05:41:26;;;;;;;0.03;0.03;;;;;;;15.56;73.22;100734.84;7362118;19;20007;-57
2022/11/13 05:43:52;;;;;;;0.10;0.10;;;;;;;15.58;72.43;100738.28;7362905;19;20006;-57
2022/11/13 05:46:23;;;;;;;0.00;0.00;;;;;;;15.56;73.50;100732.22;7362523;19;20361;-57
2022/11/13 05:48:54;;;;;;;0.03;0.03;;;;;;;15.45;73.34;100711.63;7363286;19;20010;-57
2022/11/13 05:51:25;;;;;;;0.00;0.00;;;;;;;15.55;73.36;100727.88;7362070;19;20744;-57
2022/11/13 05:53:51;;;;;;;0.00;0.00;;;;;;;15.53;73.38;100717.44;7362884;19;20011;-57
2022/11/13 05:56:20;;;;;;;0.00;0.00;;;;;;;15.44;73.29;100699.41;7364263;19;20022;-56
2022/11/13 05:58:46;;;;;;;0.10;0.10;;;;;;;15.52;73.63;100709.59;7364669;19;20962;-57
2022/11/13 06:01:16;;;;;;;0.10;0.10;;;;;;;15.53;73.54;100711.31;7362365;19;20462;-57
2022/11/13 06:03:43;;;;;;;0.00;0.00;;;;;;;15.52;73.66;100722.78;7362511;19;20011;-57
2022/11/13 06:06:11;;;;;;;0.00;0.00;;;;;;;15.53;73.38;100729.75;7362673;19;20011;-57
2022/11/13 06:08:37;;;;;;;0.05;0.05;;;;;;;15.45;73.54;100716.88;7360271;19;21169;-57
2022/11/13 06:11:05;;;;;;;0.00;0.00;;;;;;;15.52;73.63;100728.88;7362433;19;20821;-57
2022/11/13 06:13:31;;;;;;;0.10;0.10;;;;;;;15.53;73.02;100724.47;7363375;19;20043;-55
2022/11/13 06:16:05;;;;;;;0.10;0.10;;;;;;;15.56;72.98;100729.59;7364172;19;25492;-57
2022/11/13 06:18:31;;;;;;;0.08;0.08;;;;;;;15.53;73.93;100735.00;7361597;19;20021;-57
2022/11/13 06:21:05;;;;;;;0.05;0.05;;;;;;;15.57;73.46;100731.31;7362529;19;20046;-57
2022/11/13 06:23:35;;;;;;;0.00;0.00;;;;;;;15.57;73.27;100731.31;7362197;19;20015;-56
2022/11/13 06:26:03;;;;;;;0.10;0.10;;;;;;;15.58;73.34;100733.88;7362053;19;20018;-57
2022/11/13 06:28:29;;;;;;;0.03;0.03;;;;;;;15.57;73.73;100726.06;7361883;19;20030;-57
2022/11/13 06:31:00;;;;;;;0.10;0.10;;;;;;;15.59;73.06;100729.47;7359253;19;20025;-56
2022/11/13 06:33:27;;;;;;;0.10;0.10;;;;;;;15.52;73.32;100714.88;7361598;19;20007;-57
2022/11/13 06:35:52;;;;;;;0.00;0.00;;;;;;;15.62;73.47;100723.22;7361051;19;20074;-57
2022/11/13 06:38:18;;;;;;;0.10;0.10;;;;;;;15.63;73.30;100728.44;7362192;19;20077;-57
2022/11/13 06:40:43;;;;;;;0.05;0.05;;;;;;;15.65;73.64;100721.34;7360364;19;20010;-56
2022/11/13 06:43:09;;;;;;;0.00;0.00;;;;;;;15.66;73.44;100722.19;7362826;19;20720;-56
2022/11/13 06:45:35;;;;;;;0.10;0.10;;;;;;;15.67;73.26;100732.66;7360388;19;20026;-56
2022/11/13 06:48:00;;;;;;;0.10;0.10;;;;;;;15.70;73.04;100723.78;7362923;19;20119;-57
2022/11/13 06:50:25;;;;;;;0.08;0.08;;;;;;;15.71;72.82;100722.84;7361356;19;21869;-57
2022/11/13 06:52:51;;;;;;;0.00;0.00;;;;;;;15.71;73.56;100715.81;7361924;19;20007;-57
2022/11/13 06:55:16;;;;;;;0.00;0.00;;;;;;;15.73;73.08;100703.44;7360614;19;20017;-57
2022/11/13 06:57:42;;;;;;;0.00;0.00;;;;;;;15.73;73.09;100705.22;7356845;19;20045;-57
2022/11/13 07:00:08;;;;;;;0.00;0.00;;;;;;;15.73;73.28;100699.97;7365348;19;20015;-55
2022/11/13 07:02:33;;;;;;;0.00;0.00;;;;;;;15.73;73.38;100700.81;7367342;19;20148;-57
2022/11/13 07:04:58;;;;;;;0.08;0.08;;;;;;;15.71;73.36;100702.66;7367712;19;20010;-57
2022/11/13 07:07:24;;;;;;;0.10;0.10;;;;;;;15.73;73.55;100694.69;7365045;19;20014;-57
2022/11/13 07:09:49;;;;;;;0.00;0.00;;;;;;;15.72;73.03;100690.34;7363702;19;20007;-57
2022/11/13 07:12:15;;;;;;;0.00;0.00;;;;;;;15.73;73.08;100698.19;7364601;19;20070;-57
2022/11/13 07:14:40;;;;;;;0.05;0.05;;;;;;;15.72;73.20;100685.94;7364162;19;20006;-57
2022/11/13 07:17:05;;;;;;;0.00;0.00;;;;;;;15.73;73.47;100685.00;7366916;19;20180;-57
2022/11/13 07:19:31;;;;;;;0.10;0.10;;;;;;;15.72;73.06;100688.56;7362733;19;20014;-56
2022/11/13 07:21:56;;;;;;;0.08;0.08;;;;;;;15.72;73.00;100680.66;7366190;19;20025;-57
2022/11/13 07:24:22;;;;;;;0.10;0.10;;;;;;;15.73;73.69;100678.88;7365860;19;20014;-56
2022/11/13 07:26:47;;;;;;;0.00;0.00;;;;;;;15.72;73.74;100670.16;7364341;19;20055;-57
2022/11/13 07:29:12;;;;;;;0.08;0.08;;;;;;;15.65;73.40;100645.00;7365067;19;20427;-58
2022/11/13 07:31:38;;;;;;;0.10;0.10;;;;;;;15.72;73.52;100659.63;7365713;19;20018;-57
2022/11/13 07:34:04;;;;;;;0.00;0.00;;;;;;;15.73;73.11;100679.75;7368064;19;20010;-57
2022/11/13 07:36:29;;;;;;;0.00;0.00;;;;;;;15.73;73.56;100663.94;7361184;19;20018;-57
2022/11/13 07:38:54;;;;;;;0.00;0.00;;;;;;;15.75;72.86;100677.88;7366407;19;20010;-57
2022/11/13 07:41:20;;;;;;;0.10;0.10;;;;;;;15.76;73.30;100674.34;7363200;19;20019;-57
2022/11/13 07:43:45;;;;;;;0.00;0.00;;;;;;;15.79;73.20;100678.63;7364925;19;20045;-57
2022/11/13 07:46:11;;;;;;;0.00;0.00;;;;;;;15.77;73.66;100680.47;7363868;19;20769;-56
2022/11/13 07:48:36;;;;;;;0.00;0.00;;;;;;;15.81;73.56;100676.75;7364376;19;20021;-57
2022/11/13 07:51:02;;;;;;;0.00;0.00;;;;;;;15.82;73.57;100684.59;7366377;19;20041;-57
2022/11/13 07:53:27;;;;;;;0.10;0.10;;;;;;;15.79;73.33;100678.63;7364718;19;20022;-57
2022/11/13 07:55:53;;;;;;;0.08;0.08;;;;;;;15.85;73.15;100680.97;7364600;19;20111;-57
2022/11/13 07:58:18;;;;;;;0.05;0.05;;;;;;;15.87;73.19;100696.72;7363406;19;20480;-57
2022/11/13 08:00:44;;;;;;;0.03;0.03;;;;;;;15.88;73.64;100688.75;7366169;19;20014;-57
2022/11/13 08:03:15;;;;;;;0.05;0.05;;;;;;;15.92;73.00;100684.19;7365388;19;20039;-57
2022/11/13 08:05:42;;;;;;;0.10;0.10;;;;;;;15.90;73.46;100691.28;7363896;19;20007;-57
2022/11/13 08:08:10;;;;;;;0.00;0.00;;;;;;;15.95;73.16;100691.94;7364072;19;20758;-57
2022/11/13 08:10:36;;;;;;;0.00;0.00;;;;;;;15.94;73.26;100682.34;7366478;19;20029;-57
2022/11/13 08:13:06;;;;;;;0.10;0.10;;;;;;;15.97;73.15;100708.56;7365772;19;20002;-57
2022/11/13 08:15:33;;;;;;;0.10;0.10;;;;;;;15.98;73.03;100694.44;7364601;19;20011;-57
2022/11/13 08:18:00;;;;;;;0.00;0.00;;;;;;;16.02;72.89;100696.03;7363318;19;20430;-57
2022/11/13 08:20:27;;;;;;;0.03;0.03;;;;;;;15.99;73.29;100694.38;7365841;19;20014;-57
2022/11/13 08:22:55;;;;;;;0.10;0.10;;;;;;;16.04;73.32;100688.91;7366264;19;20026;-57
2022/11/13 08:25:21;;;;;;;0.10;0.10;;;;;;;16.04;72.97;100699.44;7363323;19;20014;-57
2022/11/13 08:27:46;;;;;;;0.10;0.10;;;;;;;16.04;72.92;100688.91;7363790;19;20017;-57
2022/11/13 08:30:13;;;;;;;0.00;0.00;;;;;;;16.02;73.16;100686.34;7360512;19;20741;-56
2022/11/13 08:32:38;;;;;;;0.10;0.10;;;;;;;16.00;73.14;100689.97;7366268;19;20034;-58
2022/11/13 08:35:04;;;;;;;0.10;0.10;;;;;;;16.09;72.79;100692.19;7363899;19;20014;-57
2022/11/13 08:37:31;;;;;;;0.10;0.10;;;;;;;16.11;73.17;100679.78;7365137;19;20015;-57
2022/11/13 08:39:56;;;;;;;0.10;0.10;;;;;;;16.13;72.74;100685.00;7363518;19;20512;-55
2022/11/13 08:42:22;;;;;;;0.03;0.03;;;;;;;16.15;73.01;100691.91;7364174;19;20010;-56
2022/11/13 08:44:47;;;;;;;0.10;0.10;;;;;;;16.13;72.67;100672.69;7363164;19;20022;-57
2022/11/13 08:47:13;;;;;;;0.00;0.00;;;;;;;16.12;72.90;100685.91;7364041;19;20017;-57
2022/11/13 08:49:38;;;;;;;0.00;0.00;;;;;;;16.18;72.90;100686.50;7361478;19;20550;-57
2022/11/13 08:52:04;;;;;;;0.00;0.00;;;;;;;16.20;72.91;100689.91;7363591;19;20026;-57
2022/11/13 08:54:29;;;;;;;0.10;0.10;;;;;;;16.22;72.83;100692.44;7362875;19;20036;-56
2022/11/13 08:56:54;;;;;;;0.10;0.10;;;;;;;16.20;72.54;100679.34;7364450;19;20014;-57
2022/11/13 08:59:22;;;;;;;0.10;0.10;;;;;;;16.24;72.47;100691.47;7361300;19;20014;-56
2022/11/13 09:01:47;;;;;;;0.05;0.05;;;;;;;16.28;72.99;100697.47;7363638;19;20049;-57
2022/11/13 09:04:13;;;;;;;0.10;0.10;;;;;;;16.30;72.49;100688.53;7364000;19;20011;-57
2022/11/13 09:06:38;;;;;;;0.00;0.00;;;;;;;16.31;72.66;100682.34;7358679;19;20013;-57
2022/11/13 09:09:05;;;;;;;0.15;0.15;;;;;;;16.32;72.69;100683.19;7123135;19;20610;-59
2022/11/13 09:11:31;;;;;;;0.10;0.10;;;;;;;16.30;72.94;100656.91;7356811;19;20013;-59
2022/11/13 09:13:56;;;;;;;0.10;0.10;;;;;;;16.37;72.68;100662.75;7360905;19;20078;-59
2022/11/13 09:16:21;;;;;;;0.08;0.08;;;;;;;16.40;72.71;100680.22;7361821;19;20027;-59
2022/11/13 09:18:51;;;;;;;0.00;0.00;;;;;;;16.42;72.78;100678.34;7355228;19;20553;-59
2022/11/13 09:21:16;;;;;;;0.10;0.10;;;;;;;16.43;72.68;100659.00;7358599;19;20045;-58
2022/11/13 09:23:42;;;;;;;0.00;0.00;;;;;;;16.43;72.67;100659.84;7360349;19;20477;-56
2022/11/13 09:26:07;;;;;;;0.10;0.10;;;;;;;16.48;72.50;100660.47;7357447;19;20030;-56
2022/11/13 09:28:34;;;;;;;0.03;0.03;;;;;;;16.48;72.64;100668.41;7361421;19;20041;-57
2022/11/13 09:31:03;;;;;;;0.10;0.10;;;;;;;16.56;72.44;100660.09;7360169;19;20490;-56
2022/11/13 09:33:29;;;;;;;0.00;0.00;;;;;;;16.55;72.46;100661.88;7360111;19;20442;-56
2022/11/13 09:35:54;;;;;;;0.00;0.00;;;;;;;16.59;72.68;100668.72;7357966;19;20018;-57
2022/11/13 09:38:20;;;;;;;0.00;0.00;;;;;;;16.60;72.68;100673.06;7358521;19;21344;-57
2022/11/13 09:40:57;;;;;;;0.00;0.00;;;;;;;16.72;72.53;100666.38;7359067;19;20643;-57
2022/11/13 09:43:25;;;;;;;0.10;0.10;;;;;;;16.73;72.65;100657.56;7359960;19;20010;-57
2022/11/13 09:45:56;;;;;;;0.10;0.10;;;;;;;16.77;72.28;100653.81;7348455;19;20010;-56
2022/11/13 09:48:29;;;;;;;0.10;0.10;;;;;;;16.86;72.75;100661.28;7359093;19;20010;-57
2022/11/13 09:50:56;;;;;;;0.10;0.10;;;;;;;16.98;72.69;100664.22;7357717;19;20020;-57
2022/11/13 09:53:21;;;;;;;0.00;0.00;;;;;;;17.04;72.41;100662.16;7360140;19;20482;-56
2022/11/13 09:56:19;;;;;;;0.10;0.10;;;;;;;17.34;72.94;100677.38;7358958;19;20007;-57
2022/11/13 09:58:50;;;;;;;0.10;0.10;;;;;;;17.49;72.31;100673.09;7257564;19;2004237;-58
2022/11/13 10:01:48;;;;;;;0.10;0.10;;;;;;;17.71;72.16;100668.38;7361919;19;20003;-57
2022/11/13 10:04:28;;;;;;;0.00;0.00;;;;;;;17.84;71.24;100664.19;7249862;19;2004267;-57
2022/11/13 10:07:33;;;;;;;0.10;0.10;;;;;;;18.03;71.68;100665.84;7360873;19;20437;-55
2022/11/13 10:09:58;;;;;;;0.00;0.00;;;;;;;18.07;70.08;100665.59;7255094;19;2004128;-57
2022/11/13 10:12:29;;;;;;;0.05;0.05;;;;;;;18.20;69.48;100662.25;7360713;19;20094;-57
2022/11/13 10:14:59;;;;;;;0.00;0.00;;;;;;;18.26;69.89;100665.44;7362271;19;20014;-56
2022/11/13 10:17:59;;;;;;;0.00;0.00;;;;;;;18.37;70.10;100647.19;7361381;19;21050;-57
2022/11/13 10:20:39;;;;;;;0.00;0.00;;;;;;;18.47;69.88;100649.31;7259422;19;2004191;-57
2022/11/13 10:23:13;;;;;;;0.10;0.10;;;;;;;18.48;68.91;100648.38;7357545;19;20074;-57
2022/11/13 10:25:41;;;;;;;0.00;0.00;;;;;;;18.56;68.66;100651.47;7355297;19;20019;-57
2022/11/13 10:28:17;;;;;;;;;;;;;;;18.74;70.10;100641.63;7360146;19;20011;-56
2022/11/13 10:30:44;;;;;;;0.10;0.10;;;;;;;18.79;68.94;100637.78;7358438;19;19947;-57
2022/11/13 10:33:16;;;;;;;0.05;0.05;;;;;;;18.90;68.47;100640.66;7365640;19;20033;-57
2022/11/13 10:36:13;;;;;;;0.10;0.10;;;;;;;19.08;68.79;100643.19;7364906;19;20013;-57
2022/11/13 10:38:48;;;;;;;0.10;0.10;;;;;;;19.16;67.79;100636.50;7262761;19;2004262;-56
2022/11/13 10:41:20;;;;;;;0.10;0.10;;;;;;;19.31;68.15;100637.38;7362167;19;20006;-58
2022/11/13 10:43:53;;;;;;;0.10;0.10;;;;;;;19.44;67.66;100630.38;7365945;19;20006;-57
2022/11/13 10:46:23;;;;;;;0.00;0.00;;;;;;;19.57;67.02;100629.66;7362552;19;20018;-57
2022/11/13 10:48:48;;;;;;;0.10;0.10;;;;;;;19.67;65.57;100630.81;7366745;19;20025;-57
2022/11/13 10:51:20;;;;;;;0.10;0.10;;;;;;;19.88;66.76;100628.63;7368693;19;20006;-57
2022/11/13 10:53:46;;;;;;;0.10;0.10;;;;;;;19.95;65.16;100622.81;7365352;19;20016;-56
2022/11/13 10:56:21;;;;;;;0.10;0.10;;;;;;;20.14;65.56;100614.56;7364084;19;20030;-56
2022/11/13 10:59:11;;;;;;;0.00;0.00;;;;;;;20.33;67.43;100614.25;7363134;19;20109;-57
2022/11/13 11:01:38;;;;;;;0.00;0.00;;;;;;;20.38;63.89;100612.16;7364339;19;20010;-57
2022/11/13 11:04:19;;;;;;;0.10;0.10;;;;;;;20.47;64.66;100606.25;7353386;19;20014;-57
2022/11/13 11:06:45;;;;;;;0.10;0.10;;;;;;;20.58;62.93;100607.34;7362825;19;20840;-58
2022/11/13 11:09:29;;;;;;;0.10;0.10;;;;;;;20.78;64.78;100609.53;7364023;19;22619;-57
2022/11/13 11:12:17;;;;;;;0.03;0.03;;;;;;;20.93;64.64;100597.91;7367363;19;20789;-57
2022/11/13 11:14:55;;;;;;;0.10;0.10;;;;;;;21.09;64.95;100592.41;7358547;19;20006;-57
2022/11/13 11:17:24;;;;;;;0.10;0.10;;;;;;;21.06;61.75;100581.97;7363324;19;20018;-58
2022/11/13 11:20:12;;;;;;;0.10;0.10;;;;;;;21.22;62.35;100576.47;7362432;19;20038;-57
2022/11/13 11:22:40;;;;;;;0.08;0.08;;;;;;;21.33;61.17;100589.88;7361472;19;20147;-57
2022/11/13 11:25:42;;;;;;;0.00;0.00;;;;;;;21.53;62.71;100592.97;7360536;19;20484;-57
2022/11/13 11:28:43;;;;;;;0.00;0.00;;;;;;;21.66;62.11;100591.16;7262368;19;2004286;-57
2022/11/13 11:31:46;;;;;;;0.00;0.00;;;;;;;21.74;61.39;100594.09;7257429;19;2004239;-58